createdAt,value
2023-04-18T00:01:26.535Z,83.02
2023-04-18T00:03:54.833Z,83.37
2023-04-18T00:06:23.390Z,83.39
2023-04-18T00:08:51.634Z,83.34
2023-04-18T00:11:19.724Z,83.67
2023-04-18T00:13:47.941Z,83.67
2023-04-18T00:16:16.096Z,83.59
2023-04-18T00:18:44.356Z,83.60
2023-04-18T00:21:13.576Z,83.56
2023-04-18T00:23:41.824Z,83.73
2023-04-18T00:26:09.987Z,83.95
2023-04-18T00:28:38.321Z,83.75
2023-04-18T00:31:06.576Z,83.92
2023-04-18T00:33:34.948Z,83.88
2023-04-18T00:36:03.634Z,83.62
2023-04-18T00:38:31.805Z,83.82
2023-04-18T00:40:59.904Z,83.61
2023-04-18T00:43:28.356Z,83.71
2023-04-18T00:45:57.280Z,83.84
2023-04-18T00:48:26.068Z,83.59
2023-04-18T00:50:56.069Z,83.82
2023-04-18T00:53:24.361Z,83.53
2023-04-18T00:55:53.385Z,83.62
2023-04-18T00:58:21.611Z,83.60
2023-04-18T01:00:50.201Z,83.75
2023-04-18T01:03:18.607Z,83.36
2023-04-18T01:05:47.525Z,83.70
2023-04-18T01:08:16.397Z,83.57
2023-04-18T01:10:45.316Z,83.36
2023-04-18T01:13:18.332Z,83.63
2023-04-18T01:15:48.900Z,83.73
2023-04-18T01:18:18.079Z,83.54
2023-04-18T01:20:49.919Z,83.94
2023-04-18T01:23:19.485Z,83.89
2023-04-18T01:25:51.179Z,83.60
2023-04-18T01:28:23.907Z,83.84
2023-04-18T01:30:52.191Z,84.09
2023-04-18T01:33:20.715Z,83.95
2023-04-18T01:35:50.026Z,84.15
2023-04-18T01:38:18.129Z,84.21
2023-04-18T01:40:46.472Z,84.45
2023-04-18T01:43:16.453Z,84.53
2023-04-18T01:45:44.687Z,84.67
2023-04-18T01:48:12.750Z,84.95
2023-04-18T01:50:43.009Z,85.08
2023-04-18T01:53:12.018Z,85.11
2023-04-18T01:55:40.272Z,85.53
2023-04-18T01:58:08.402Z,85.24
2023-04-18T02:00:37.491Z,85.49
2023-04-18T02:03:06.690Z,85.88
2023-04-18T02:05:36.567Z,85.94
2023-04-18T02:08:04.767Z,85.84
2023-04-18T02:10:32.913Z,85.92
2023-04-18T02:13:01.077Z,86.12
2023-04-18T02:15:29.334Z,86.35
2023-04-18T02:18:00.183Z,86.16
2023-04-18T02:20:31.845Z,86.47
2023-04-18T02:23:03.493Z,86.17
2023-04-18T02:25:31.730Z,86.73
2023-04-18T02:28:00.036Z,86.41
2023-04-18T02:30:28.458Z,86.16
2023-04-18T02:32:59.623Z,86.37
2023-04-18T02:35:28.059Z,86.21
2023-04-18T02:37:56.545Z,86.34
2023-04-18T02:40:24.727Z,86.05
2023-04-18T02:42:52.837Z,85.82
2023-04-18T02:45:21.295Z,85.75
2023-04-18T02:47:55.538Z,85.61
2023-04-18T02:50:25.325Z,85.29
2023-04-18T02:52:54.868Z,85.29
2023-04-18T02:55:24.612Z,85.08
2023-04-18T02:57:53.872Z,84.99
2023-04-18T03:00:37.298Z,84.95
2023-04-18T03:03:17.590Z,84.74
2023-04-18T03:06:05.688Z,84.90
2023-04-18T03:08:33.943Z,85.09
2023-04-18T03:11:02.137Z,84.88
2023-04-18T03:13:31.149Z,84.83
2023-04-18T03:15:59.597Z,84.63
2023-04-18T03:18:28.253Z,84.96
2023-04-18T03:20:58.080Z,85.10
2023-04-18T03:23:26.617Z,85.22
2023-04-18T03:25:54.809Z,85.29
2023-04-18T03:28:23.931Z,85.13
2023-04-18T03:30:52.090Z,85.45
2023-04-18T03:33:20.249Z,85.41
2023-04-18T03:35:48.768Z,85.45
2023-04-18T03:38:16.908Z,85.55
2023-04-18T03:40:45.136Z,85.55
2023-04-18T03:43:23.116Z,85.59
2023-04-18T03:45:51.428Z,85.54
2023-04-18T03:48:19.804Z,85.62
2023-04-18T03:50:48.289Z,85.59
2023-04-18T03:53:16.941Z,85.40
2023-04-18T03:55:45.093Z,85.42
2023-04-18T03:58:14.331Z,85.41
2023-04-18T04:00:42.816Z,85.50
2023-04-18T04:03:11.418Z,85.45
2023-04-18T04:05:41.249Z,85.65
2023-04-18T04:08:09.576Z,85.47
2023-04-18T04:10:37.738Z,85.57
2023-04-18T04:13:06.003Z,85.72
2023-04-18T04:15:38.184Z,85.53
2023-04-18T04:18:09.012Z,85.64
2023-04-18T04:20:39.469Z,85.68
2023-04-18T04:23:12.022Z,85.76
2023-04-18T04:25:40.634Z,86.03
2023-04-18T04:28:16.431Z,86.02
2023-04-18T04:30:53.907Z,85.95
2023-04-18T04:33:28.709Z,86.25
2023-04-18T04:36:01.410Z,86.01
2023-04-18T04:38:31.164Z,86.32
2023-04-18T04:40:59.857Z,86.28
2023-04-18T04:43:29.043Z,86.51
2023-04-18T04:45:57.817Z,86.34
2023-04-18T04:48:26.234Z,86.40
2023-04-18T04:50:59.604Z,86.63
2023-04-18T04:53:32.297Z,86.65
2023-04-18T04:56:01.903Z,86.88
2023-04-18T04:58:30.297Z,86.80
2023-04-18T05:01:01.456Z,86.87
2023-04-18T05:03:29.988Z,86.89
2023-04-18T05:05:58.712Z,86.83
2023-04-18T05:08:26.914Z,86.77
2023-04-18T05:10:55.877Z,86.65
2023-04-18T05:13:24.108Z,86.48
2023-04-18T05:15:52.710Z,86.42
2023-04-18T05:18:21.012Z,86.53
2023-04-18T05:20:49.471Z,86.41
2023-04-18T05:23:17.556Z,86.17
2023-04-18T05:25:45.733Z,85.98
2023-04-18T05:28:13.862Z,85.70
2023-04-18T05:30:42.158Z,85.44
2023-04-18T05:33:10.294Z,85.34
2023-04-18T05:35:38.565Z,85.02
2023-04-18T05:38:06.644Z,84.86
2023-04-18T05:40:35.172Z,84.73
2023-04-18T05:43:03.290Z,84.51
2023-04-18T05:45:31.447Z,84.35
2023-04-18T05:47:59.566Z,84.22
2023-04-18T05:50:27.773Z,83.89
2023-04-18T05:52:59.398Z,83.71
2023-04-18T05:55:27.540Z,83.55
2023-04-18T05:57:55.884Z,83.10
2023-04-18T06:00:24.358Z,82.63
2023-04-18T06:02:52.860Z,82.55
2023-04-18T06:05:21.510Z,82.35
2023-04-18T06:07:49.705Z,82.00
2023-04-18T06:10:18.002Z,81.83
2023-04-18T06:12:46.123Z,81.78
2023-04-18T06:15:14.273Z,81.36
2023-04-18T06:17:42.412Z,80.89
2023-04-18T06:20:11.102Z,80.58
2023-04-18T06:22:39.284Z,80.27
2023-04-18T06:25:10.070Z,79.64
2023-04-18T06:27:38.437Z,79.36
2023-04-18T06:30:08.105Z,79.12
2023-04-18T06:32:36.329Z,79.16
2023-04-18T06:35:04.828Z,79.16
2023-04-18T06:37:33.085Z,78.82
2023-04-18T06:40:01.389Z,78.86
2023-04-18T06:42:29.552Z,78.70
2023-04-18T06:44:57.627Z,78.54
2023-04-18T06:47:26.025Z,78.57
2023-04-18T06:49:54.188Z,78.36
2023-04-18T06:52:22.418Z,78.66
2023-04-18T06:54:50.819Z,78.46
2023-04-18T06:57:19.114Z,78.63
2023-04-18T06:59:47.234Z,77.98
2023-04-18T07:02:15.672Z,77.73
2023-04-18T07:04:44.046Z,77.81
2023-04-18T07:07:12.208Z,77.82
2023-04-18T07:09:40.302Z,77.49
2023-04-18T07:12:08.485Z,77.49
2023-04-18T07:14:36.683Z,77.57
2023-04-18T07:17:05.239Z,77.66
2023-04-18T07:19:33.430Z,77.48
2023-04-18T07:22:01.533Z,77.13
2023-04-18T07:24:29.947Z,77.11
2023-04-18T07:26:58.210Z,76.68
2023-04-18T07:29:27.796Z,76.37
2023-04-18T07:31:56.722Z,76.66
2023-04-18T07:34:27.216Z,76.20
2023-04-18T07:36:57.124Z,75.96
2023-04-18T07:39:25.246Z,75.68
2023-04-18T07:41:53.424Z,75.55
2023-04-18T07:44:22.333Z,75.34
2023-04-18T07:46:50.414Z,74.99
2023-04-18T07:49:18.609Z,74.98
2023-04-18T07:51:46.746Z,74.47
2023-04-18T07:54:15.068Z,74.52
2023-04-18T07:56:43.236Z,74.38
2023-04-18T07:59:11.718Z,74.69
2023-04-18T08:01:39.844Z,74.53
2023-04-18T08:04:08.254Z,74.07
2023-04-18T08:06:36.518Z,73.98
2023-04-18T08:09:06.040Z,73.97
2023-04-18T08:11:34.453Z,73.93
2023-04-18T08:14:02.678Z,74.07
2023-04-18T08:16:30.917Z,73.72
2023-04-18T08:18:59.096Z,73.14
2023-04-18T08:21:27.220Z,72.39
2023-04-18T08:23:55.699Z,71.76
2023-04-18T08:26:23.825Z,71.32
2023-04-18T08:28:51.994Z,70.82
2023-04-18T08:31:20.298Z,70.23
2023-04-18T08:33:48.454Z,70.00
2023-04-18T08:36:16.668Z,69.19
2023-04-18T08:38:45.114Z,69.04
2023-04-18T08:41:13.589Z,69.39
2023-04-18T08:43:41.825Z,69.47
2023-04-18T08:46:10.187Z,69.09
2023-04-18T08:48:38.577Z,68.37
2023-04-18T08:51:07.186Z,68.00
2023-04-18T08:53:36.078Z,68.08
2023-04-18T08:56:05.654Z,67.31
2023-04-18T08:58:34.983Z,67.21
2023-04-18T09:01:03.472Z,67.19
2023-04-18T09:03:42.481Z,67.18
2023-04-18T09:06:22.134Z,66.23
2023-04-18T09:08:59.216Z,66.47
2023-04-18T09:11:29.981Z,66.99
2023-04-18T09:13:59.129Z,67.11
2023-04-18T09:16:28.181Z,66.84
2023-04-18T09:19:14.621Z,66.88
2023-04-18T09:21:48.920Z,66.41
2023-04-18T09:24:21.121Z,65.85
2023-04-18T09:26:50.586Z,65.91
2023-04-18T09:29:22.748Z,65.91
2023-04-18T09:32:02.106Z,65.81
2023-04-18T09:34:30.584Z,66.13
2023-04-18T09:37:17.154Z,65.66
2023-04-18T09:39:45.609Z,65.93
2023-04-18T09:42:14.129Z,64.91
2023-04-18T09:44:58.610Z,63.05
2023-04-18T09:47:28.467Z,62.23
2023-04-18T09:49:56.772Z,63.14
2023-04-18T09:52:28.637Z,62.62
2023-04-18T09:55:00.232Z,61.96
2023-04-18T09:57:30.595Z,62.23
2023-04-18T10:00:27.396Z,60.62
2023-04-18T10:03:05.338Z,60.53
2023-04-18T10:05:39.452Z,61.11
2023-04-18T10:08:09.575Z,62.26
2023-04-18T10:10:39.098Z,61.55
2023-04-18T10:13:11.297Z,61.85
2023-04-18T10:15:40.704Z,62.93
2023-04-18T10:18:14.251Z,63.66
2023-04-18T10:20:42.713Z,63.14
2023-04-18T10:23:34.851Z,63.29
2023-04-18T10:26:05.274Z,62.50
2023-04-18T10:28:58.858Z,61.56
2023-04-18T10:31:28.721Z,59.78
2023-04-18T10:34:05.297Z,59.97
2023-04-18T10:36:34.177Z,59.89
2023-04-18T10:39:25.636Z,59.97
2023-04-18T10:41:54.200Z,60.34
2023-04-18T10:44:23.216Z,60.95
2023-04-18T10:46:51.978Z,60.86
2023-04-18T10:49:21.959Z,60.25
2023-04-18T10:52:02.209Z,58.02
2023-04-18T10:54:58.426Z,57.68
2023-04-18T10:57:40.507Z,57.98
2023-04-18T11:00:14.082Z,57.20
2023-04-18T11:02:48.484Z,56.47
2023-04-18T11:05:21.894Z,56.13
2023-04-18T11:07:50.397Z,56.84
2023-04-18T11:10:24.655Z,55.58
2023-04-18T11:12:55.890Z,55.89
2023-04-18T11:15:25.588Z,55.88
2023-04-18T11:18:00.985Z,55.39
2023-04-18T11:20:37.199Z,54.58
2023-04-18T11:23:20.620Z,53.51
2023-04-18T11:25:54.596Z,53.48
2023-04-18T11:28:25.088Z,54.84
2023-04-18T11:30:58.437Z,55.68
2023-04-18T11:33:29.628Z,54.80
2023-04-18T11:36:01.070Z,54.17
2023-04-18T11:38:33.990Z,53.85
2023-04-18T11:41:05.381Z,53.90
2023-04-18T11:43:33.871Z,53.50
2023-04-18T11:46:02.079Z,52.23
2023-04-18T11:48:43.399Z,52.64
2023-04-18T11:51:46.401Z,52.18
2023-04-18T11:54:38.248Z,51.82
2023-04-18T11:57:07.277Z,52.58
2023-04-18T11:59:36.459Z,52.82
2023-04-18T12:02:15.251Z,53.19
2023-04-18T12:04:59.310Z,54.90
2023-04-18T12:07:35.023Z,54.39
2023-04-18T12:10:08.280Z,53.97
2023-04-18T12:12:36.815Z,54.23
2023-04-18T12:15:09.647Z,52.65
2023-04-18T12:17:38.429Z,53.13
2023-04-18T12:20:10.945Z,52.97
2023-04-18T12:22:39.042Z,52.92
2023-04-18T12:25:12.757Z,53.94
2023-04-18T12:28:10.459Z,54.03
2023-04-18T12:30:38.533Z,55.33
2023-04-18T12:33:06.776Z,56.18
2023-04-18T12:35:35.694Z,57.12
2023-04-18T12:38:06.013Z,57.27
2023-04-18T12:40:34.295Z,57.05
2023-04-18T12:43:03.780Z,57.25
2023-04-18T12:45:32.192Z,58.07
2023-04-18T12:48:00.481Z,57.89
2023-04-18T12:50:28.644Z,58.27
2023-04-18T12:52:58.523Z,57.65
2023-04-18T12:55:26.965Z,56.45
2023-04-18T12:57:55.651Z,56.26
2023-04-18T13:00:26.850Z,56.08
2023-04-18T13:02:55.425Z,56.63
2023-04-18T13:05:27.671Z,57.15
2023-04-18T13:08:08.453Z,56.86
2023-04-18T13:10:44.304Z,56.12
2023-04-18T13:13:12.457Z,55.11
2023-04-18T13:15:40.674Z,52.98
2023-04-18T13:18:08.889Z,51.80
2023-04-18T13:20:37.254Z,52.72
2023-04-18T13:23:05.676Z,53.11
2023-04-18T13:25:33.957Z,51.55
2023-04-18T13:28:02.161Z,52.95
2023-04-18T13:30:30.325Z,52.34
2023-04-18T13:32:58.513Z,52.22
2023-04-18T13:35:26.674Z,50.97
2023-04-18T13:37:54.768Z,50.98
2023-04-18T13:40:23.008Z,51.85
2023-04-18T13:43:00.755Z,53.11
2023-04-18T13:45:28.985Z,54.03
2023-04-18T13:47:57.200Z,54.87
2023-04-18T13:50:25.475Z,55.83
2023-04-18T13:52:54.800Z,56.48
2023-04-18T13:55:23.134Z,57.21
2023-04-18T13:57:51.355Z,58.00
2023-04-18T14:00:20.216Z,58.07
2023-04-18T14:02:49.711Z,58.18
2023-04-18T14:05:18.042Z,57.87
2023-04-18T14:07:46.378Z,58.01
2023-04-18T14:10:14.640Z,58.59
2023-04-18T14:12:49.022Z,59.29
2023-04-18T14:18:57.226Z,59.95
2023-04-18T14:21:26.449Z,60.80
2023-04-18T14:23:55.479Z,60.98
2023-04-18T14:26:23.684Z,61.09
2023-04-18T14:28:52.185Z,61.55
2023-04-18T14:31:20.468Z,61.81
2023-04-18T14:33:48.858Z,62.13
2023-04-18T14:36:17.272Z,62.46
2023-04-18T14:38:51.424Z,62.38
2023-04-18T14:41:19.653Z,62.80
2023-04-18T14:43:47.818Z,62.71
2023-04-18T14:46:16.810Z,62.58
2023-04-18T14:48:49.042Z,62.39
2023-04-18T14:51:17.274Z,61.80
2023-04-18T14:53:45.772Z,61.35
2023-04-18T14:56:14.855Z,60.80
2023-04-18T14:58:43.487Z,60.32
2023-04-18T15:01:11.678Z,59.73
2023-04-18T15:03:40.477Z,59.21
2023-04-18T15:06:08.823Z,58.51
2023-04-18T15:08:37.161Z,58.63
2023-04-18T15:11:09.672Z,58.43
2023-04-18T15:13:38.052Z,58.41
2023-04-18T15:16:07.186Z,58.44
2023-04-18T15:18:35.471Z,59.19
2023-04-18T15:21:03.703Z,58.85
2023-04-18T15:23:32.241Z,59.15
2023-04-18T15:26:00.422Z,60.11
2023-04-18T15:28:28.644Z,60.49
2023-04-18T15:30:56.745Z,60.56
2023-04-18T15:33:25.397Z,60.69
2023-04-18T15:35:55.739Z,60.53
2023-04-18T15:38:23.992Z,61.06
2023-04-18T15:40:52.174Z,61.35
2023-04-18T15:43:20.897Z,61.11
2023-04-18T15:45:51.100Z,61.45
2023-04-18T15:48:19.691Z,61.44
2023-04-18T15:50:52.340Z,61.35
2023-04-18T15:53:20.670Z,61.45
2023-04-18T15:55:48.853Z,61.49
2023-04-18T15:58:17.606Z,61.98
2023-04-18T16:00:46.461Z,62.21
2023-04-18T16:03:14.888Z,62.40
2023-04-18T16:05:43.111Z,62.91
2023-04-18T16:08:11.217Z,63.27
2023-04-18T16:10:39.565Z,63.43
2023-04-18T16:13:07.712Z,63.61
2023-04-18T16:15:35.918Z,63.75
2023-04-18T16:18:04.143Z,63.89
2023-04-18T16:20:33.514Z,63.68
2023-04-18T16:23:01.761Z,63.31
2023-04-18T16:25:29.974Z,62.72
2023-04-18T16:27:58.113Z,62.24
2023-04-18T16:30:26.211Z,61.67
2023-04-18T16:32:54.589Z,60.69
2023-04-18T16:35:23.070Z,60.20
2023-04-18T16:37:51.283Z,59.56
2023-04-18T16:40:19.579Z,59.21
2023-04-18T16:42:47.704Z,59.33
2023-04-18T16:45:17.416Z,59.36
2023-04-18T16:47:45.828Z,59.16
2023-04-18T16:50:14.202Z,59.40
2023-04-18T16:52:42.527Z,59.64
2023-04-18T16:55:11.206Z,59.57
2023-04-18T16:57:39.531Z,59.38
2023-04-18T17:00:10.047Z,59.13
2023-04-18T17:02:42.813Z,59.41
2023-04-18T17:05:11.344Z,59.71
2023-04-18T17:07:39.603Z,59.39
2023-04-18T17:10:09.930Z,59.69
2023-04-18T17:12:38.253Z,60.07
2023-04-18T17:15:07.296Z,60.36
2023-04-18T17:17:35.804Z,60.85
2023-04-18T17:20:07.094Z,61.05
2023-04-18T17:22:35.716Z,61.52
2023-04-18T17:25:04.325Z,62.01
2023-04-18T17:27:32.477Z,62.65
2023-04-18T17:30:00.640Z,63.28
2023-04-18T17:32:28.859Z,64.01
2023-04-18T17:34:57.372Z,64.38
2023-04-18T17:37:26.021Z,65.09
2023-04-18T17:39:54.732Z,65.47
2023-04-18T17:42:22.848Z,65.95
2023-04-18T17:44:50.987Z,66.27
2023-04-18T17:47:19.200Z,66.53
2023-04-18T17:49:47.334Z,67.02
2023-04-18T17:52:15.592Z,67.32
2023-04-18T17:54:44.012Z,67.36
2023-04-18T17:57:12.330Z,67.74
2023-04-18T17:59:40.711Z,68.24
2023-04-18T18:02:08.949Z,68.42
2023-04-18T18:04:41.779Z,68.96
2023-04-18T18:07:10.180Z,69.08
2023-04-18T18:09:38.626Z,69.29
2023-04-18T18:12:07.005Z,69.78
2023-04-18T18:14:35.099Z,69.60
2023-04-18T18:17:03.871Z,70.04
2023-04-18T18:19:32.171Z,70.37
2023-04-18T18:22:00.539Z,70.60
2023-04-18T18:24:28.760Z,70.95
2023-04-18T18:26:58.174Z,71.00
2023-04-18T18:29:26.354Z,70.92
2023-04-18T18:31:54.725Z,70.90
2023-04-18T18:34:22.929Z,70.79
2023-04-18T18:36:51.169Z,71.13
2023-04-18T18:39:20.082Z,70.73
2023-04-18T18:41:48.143Z,70.68
2023-04-18T18:44:16.481Z,70.92
2023-04-18T18:46:44.672Z,71.02
2023-04-18T18:49:13.201Z,70.98
2023-04-18T18:51:41.858Z,70.83
2023-04-18T18:54:10.032Z,70.87
2023-04-18T18:56:39.885Z,70.65
2023-04-18T18:59:08.073Z,70.44
2023-04-18T19:01:36.289Z,70.84
2023-04-18T19:04:05.251Z,70.60
2023-04-18T19:06:33.969Z,70.68
2023-04-18T19:09:02.068Z,70.97
2023-04-18T19:11:30.256Z,70.51
2023-04-18T19:13:58.352Z,70.36
2023-04-18T19:16:26.782Z,70.76
2023-04-18T19:18:54.937Z,70.77
2023-04-18T19:21:23.180Z,70.26
2023-04-18T19:23:51.348Z,70.74
2023-04-18T19:26:19.498Z,70.59
2023-04-18T19:28:47.653Z,70.21
2023-04-18T19:31:15.936Z,70.49
2023-04-18T19:33:44.180Z,70.26
2023-04-18T19:36:12.343Z,70.52
2023-04-18T19:38:40.590Z,70.72
2023-04-18T19:41:08.705Z,70.66
2023-04-18T19:43:38.543Z,70.30
2023-04-18T19:46:06.713Z,70.26
2023-04-18T19:48:34.913Z,70.07
2023-04-18T19:51:04.361Z,70.14
2023-04-18T19:53:32.559Z,69.87
2023-04-18T19:56:00.661Z,69.58
2023-04-18T19:58:49.358Z,69.47
2023-04-18T20:01:19.350Z,69.19
2023-04-18T20:03:48.070Z,68.75
2023-04-18T20:06:17.629Z,68.87
2023-04-18T20:08:46.313Z,68.71
2023-04-18T20:11:14.508Z,68.69
2023-04-18T20:13:42.852Z,68.63
2023-04-18T20:16:12.313Z,68.65
2023-04-18T20:18:41.720Z,69.10
2023-04-18T20:21:11.227Z,69.23
2023-04-18T20:23:42.159Z,69.37
2023-04-18T20:26:10.433Z,69.36
2023-04-18T20:28:38.597Z,69.83
2023-04-18T20:31:07.283Z,69.96
2023-04-18T20:33:36.649Z,70.14
2023-04-18T20:36:06.528Z,70.25
2023-04-18T20:38:34.782Z,70.43
2023-04-18T20:41:03.220Z,70.76
2023-04-18T20:43:37.455Z,70.93
2023-04-18T20:46:07.210Z,71.08
2023-04-18T20:48:35.691Z,71.34
2023-04-18T20:51:04.253Z,71.24
2023-04-18T20:53:32.529Z,71.57
2023-04-18T20:56:03.576Z,71.59
2023-04-18T20:58:31.975Z,71.89
2023-04-18T21:01:00.123Z,72.23
2023-04-18T21:03:28.395Z,72.54
2023-04-18T21:05:56.899Z,72.75
2023-04-18T21:08:25.149Z,72.86
2023-04-18T21:10:53.339Z,73.29
2023-04-18T21:13:21.605Z,73.33
2023-04-18T21:15:52.091Z,73.61
2023-04-18T21:18:20.321Z,74.18
2023-04-18T21:20:48.954Z,74.36
2023-04-18T21:23:17.107Z,74.63
2023-04-18T21:25:45.686Z,74.84
2023-04-18T21:28:13.902Z,75.34
2023-04-18T21:30:42.062Z,75.16
2023-04-18T21:33:10.364Z,75.39
2023-04-18T21:35:38.573Z,75.41
2023-04-18T21:38:06.729Z,75.79
2023-04-18T21:40:34.939Z,76.01
2023-04-18T21:43:03.067Z,76.22
2023-04-18T21:45:31.225Z,76.48
2023-04-18T21:47:59.409Z,76.58
2023-04-18T21:50:27.683Z,76.55
2023-04-18T21:52:55.802Z,76.60
2023-04-18T21:55:23.851Z,76.55
2023-04-18T21:57:52.024Z,76.81
2023-04-18T22:00:20.707Z,77.06
2023-04-18T22:02:49.022Z,77.33
2023-04-18T22:05:17.931Z,77.62
2023-04-18T22:07:57.514Z,77.97
2023-04-18T22:10:26.647Z,78.35
2023-04-18T22:12:54.785Z,78.39
2023-04-18T22:15:23.847Z,78.56
2023-04-18T22:17:52.094Z,78.74
2023-04-18T22:20:20.361Z,78.80
2023-04-18T22:22:48.450Z,78.98
2023-04-18T22:25:16.641Z,79.15
2023-04-18T22:27:46.427Z,79.08
2023-04-18T22:30:14.912Z,79.36
2023-04-18T22:32:43.248Z,79.23
2023-04-18T22:35:11.334Z,79.63
2023-04-18T22:37:39.598Z,79.72
2023-04-18T22:40:09.130Z,80.08
2023-04-18T22:42:38.712Z,79.96
2023-04-18T22:45:07.928Z,80.06
2023-04-18T22:47:36.216Z,80.34
2023-04-18T22:50:05.100Z,80.59
2023-04-18T22:52:34.272Z,80.64
2023-04-18T22:55:03.655Z,80.71
2023-04-18T22:57:32.042Z,80.55
2023-04-18T23:00:00.127Z,80.60
2023-04-18T23:02:28.531Z,80.75
2023-04-18T23:04:59.122Z,80.76
2023-04-18T23:07:27.378Z,80.76
2023-04-18T23:09:55.766Z,80.79
2023-04-18T23:12:24.137Z,80.63
2023-04-18T23:14:52.338Z,80.74
2023-04-18T23:17:21.105Z,80.56
2023-04-18T23:19:49.278Z,80.52
2023-04-18T23:22:17.623Z,80.31
2023-04-18T23:24:45.939Z,80.63
2023-04-18T23:27:14.309Z,80.31
2023-04-18T23:29:42.692Z,80.11
2023-04-18T23:32:10.811Z,80.29
2023-04-18T23:34:39.311Z,80.17
2023-04-18T23:37:09.742Z,80.22
2023-04-18T23:39:37.849Z,79.91
2023-04-18T23:42:06.010Z,80.00
2023-04-18T23:44:34.143Z,79.88
2023-04-18T23:47:02.489Z,79.72
2023-04-18T23:49:30.585Z,79.49
2023-04-18T23:51:58.697Z,79.32
2023-04-18T23:54:27.001Z,79.41
2023-04-18T23:56:55.176Z,79.44
2023-04-18T23:59:23.301Z,79.47
